createdAt,value
2023-01-20T00:01:27.196Z,96635.66
2023-01-20T00:03:55.758Z,96637.34
2023-01-20T00:06:23.732Z,96641.50
2023-01-20T00:08:54.294Z,96648.47
2023-01-20T00:11:21.549Z,96643.69
2023-01-20T00:13:51.034Z,96640.00
2023-01-20T00:16:17.567Z,96645.63
2023-01-20T00:18:44.084Z,96641.84
2023-01-20T00:21:12.731Z,96641.31
2023-01-20T00:23:40.458Z,96637.97
2023-01-20T00:26:12.643Z,96641.09
2023-01-20T00:28:39.442Z,96639.72
2023-01-20T00:31:20.875Z,96641.09
2023-01-20T00:33:48.990Z,96635.56
2023-01-20T00:36:17.368Z,96640.44
2023-01-20T00:38:44.398Z,96637.41
2023-01-20T00:41:11.475Z,96632.31
2023-01-20T00:43:38.429Z,96635.59
2023-01-20T00:46:05.626Z,96636.97
2023-01-20T00:48:32.808Z,96637.03
2023-01-20T00:51:02.014Z,96634.66
2023-01-20T00:53:29.025Z,96643.34
2023-01-20T00:55:56.156Z,96642.09
2023-01-20T00:58:22.911Z,96641.09
2023-01-20T01:00:51.166Z,96641.31
2023-01-20T01:03:18.000Z,96646.56
2023-01-20T01:05:45.467Z,96651.47
2023-01-20T01:08:12.180Z,96653.13
2023-01-20T01:10:38.964Z,96653.47
2023-01-20T01:13:05.922Z,96659.78
2023-01-20T01:15:32.522Z,96666.16
2023-01-20T01:17:59.853Z,96662.53
2023-01-20T01:20:27.199Z,96667.38
2023-01-20T01:22:53.753Z,96670.97
2023-01-20T01:25:20.555Z,96668.41
2023-01-20T01:27:47.064Z,96663.94
2023-01-20T01:30:13.596Z,96668.03
2023-01-20T01:32:40.429Z,96666.78
2023-01-20T01:35:07.087Z,96669.94
2023-01-20T01:37:33.547Z,96676.88
2023-01-20T01:40:00.016Z,96687.75
2023-01-20T01:42:26.841Z,96678.94
2023-01-20T01:45:12.082Z,96690.50
2023-01-20T01:47:53.295Z,96685.59
2023-01-20T01:50:26.222Z,96684.00
2023-01-20T01:52:55.549Z,96688.22
2023-01-20T01:55:30.471Z,96681.09
2023-01-20T01:57:59.762Z,96679.09
2023-01-20T02:00:26.763Z,96678.28
2023-01-20T02:02:54.699Z,96682.09
2023-01-20T02:05:25.608Z,96681.34
2023-01-20T02:07:52.393Z,96680.19
2023-01-20T02:10:21.336Z,96680.97
2023-01-20T02:12:51.247Z,96686.19
2023-01-20T02:15:22.981Z,96688.72
2023-01-20T02:18:25.086Z,96694.72
2023-01-20T02:21:12.879Z,96695.09
2023-01-20T02:23:58.288Z,96694.31
2023-01-20T02:26:33.979Z,96696.88
2023-01-20T02:29:03.500Z,96699.03
2023-01-20T02:31:43.733Z,96707.28
2023-01-20T02:34:41.191Z,96702.81
2023-01-20T02:37:15.983Z,96700.94
2023-01-20T02:39:55.937Z,96707.00
2023-01-20T02:42:30.182Z,96705.50
2023-01-20T02:45:08.930Z,96706.41
2023-01-20T02:47:43.284Z,96709.66
2023-01-20T02:50:23.888Z,96715.75
2023-01-20T02:52:54.277Z,96716.56
2023-01-20T02:55:31.627Z,96717.69
2023-01-20T02:58:06.953Z,96713.44
2023-01-20T03:00:40.258Z,96708.34
2023-01-20T03:03:12.119Z,96702.28
2023-01-20T03:05:45.851Z,96706.50
2023-01-20T03:08:14.908Z,96704.59
2023-01-20T03:10:42.888Z,96709.44
2023-01-20T03:13:32.559Z,96702.41
2023-01-20T03:16:03.153Z,96716.75
2023-01-20T03:18:32.296Z,96711.47
2023-01-20T03:21:03.325Z,96719.09
2023-01-20T03:23:34.124Z,96717.16
2023-01-20T03:26:07.078Z,96720.81
2023-01-20T03:28:36.187Z,96723.75
2023-01-20T03:31:13.135Z,96722.72
2023-01-20T03:33:39.728Z,96727.13
2023-01-20T03:36:06.807Z,96722.50
2023-01-20T03:38:33.443Z,96725.81
2023-01-20T03:41:04.470Z,96729.75
2023-01-20T03:43:42.771Z,96736.47
2023-01-20T03:46:19.880Z,96738.34
2023-01-20T03:48:59.033Z,96734.34
2023-01-20T03:51:34.617Z,96733.41
2023-01-20T03:54:11.143Z,96744.47
2023-01-20T03:56:51.330Z,96745.88
2023-01-20T03:59:22.694Z,96748.69
2023-01-20T04:01:49.893Z,96753.28
2023-01-20T04:04:20.265Z,96748.94
2023-01-20T04:06:49.631Z,96759.00
2023-01-20T04:09:26.352Z,96764.97
2023-01-20T04:11:55.320Z,96756.25
2023-01-20T04:14:24.312Z,96753.38
2023-01-20T04:16:56.916Z,96762.25
2023-01-20T04:19:24.917Z,96762.44
2023-01-20T04:22:05.043Z,96766.94
2023-01-20T04:24:42.307Z,96770.91
2023-01-20T04:27:09.027Z,96774.44
2023-01-20T04:29:35.588Z,96775.94
2023-01-20T04:32:05.008Z,96779.38
2023-01-20T04:34:31.498Z,96780.13
2023-01-20T04:36:58.063Z,96792.00
2023-01-20T04:39:24.616Z,96777.78
2023-01-20T04:41:51.240Z,96781.88
2023-01-20T04:44:17.789Z,96780.50
2023-01-20T04:46:45.412Z,96780.34
2023-01-20T04:49:11.943Z,96789.81
2023-01-20T04:51:38.467Z,96792.38
2023-01-20T04:54:05.266Z,96786.19
2023-01-20T04:56:31.801Z,96793.09
2023-01-20T04:59:01.122Z,96795.59
2023-01-20T05:01:27.698Z,96792.66
2023-01-20T05:03:59.165Z,96801.38
2023-01-20T05:06:25.705Z,96800.59
2023-01-20T05:08:52.243Z,96807.75
2023-01-20T05:11:18.777Z,96814.31
2023-01-20T05:13:45.393Z,96815.00
2023-01-20T05:16:12.607Z,96811.81
2023-01-20T05:18:39.322Z,96812.75
2023-01-20T05:21:08.703Z,96815.69
2023-01-20T05:23:35.583Z,96818.94
2023-01-20T05:26:02.129Z,96820.22
2023-01-20T05:28:28.603Z,96822.00
2023-01-20T05:30:55.191Z,96819.81
2023-01-20T05:33:21.893Z,96822.66
2023-01-20T05:35:48.423Z,96826.00
2023-01-20T05:38:14.948Z,96832.00
2023-01-20T05:40:41.471Z,96839.69
2023-01-20T05:43:07.943Z,96841.13
2023-01-20T05:45:34.435Z,96841.97
2023-01-20T05:48:01.197Z,96840.47
2023-01-20T05:50:30.813Z,96847.22
2023-01-20T05:52:57.324Z,96842.75
2023-01-20T05:55:23.843Z,96845.13
2023-01-20T05:57:50.398Z,96851.03
2023-01-20T06:00:19.472Z,96853.44
2023-01-20T06:02:46.161Z,96854.56
2023-01-20T06:05:13.137Z,96866.88
2023-01-20T06:07:42.150Z,96872.88
2023-01-20T06:10:11.475Z,96876.44
2023-01-20T06:12:38.319Z,96867.25
2023-01-20T06:15:05.376Z,96874.09
2023-01-20T06:17:31.912Z,96874.88
2023-01-20T06:20:00.696Z,96879.19
2023-01-20T06:22:28.098Z,96878.69
2023-01-20T06:24:54.679Z,96882.44
2023-01-20T06:27:21.482Z,96891.28
2023-01-20T06:29:47.939Z,96889.53
2023-01-20T06:32:14.460Z,96883.34
2023-01-20T06:34:43.233Z,96891.28
2023-01-20T06:37:09.738Z,96894.38
2023-01-20T06:39:36.230Z,96898.25
2023-01-20T06:42:02.689Z,96889.50
2023-01-20T06:44:29.359Z,96902.66
2023-01-20T06:46:57.947Z,96909.69
2023-01-20T06:49:24.439Z,96912.75
2023-01-20T06:51:50.989Z,96917.91
2023-01-20T06:54:17.968Z,96914.72
2023-01-20T06:56:44.509Z,96918.06
2023-01-20T06:59:12.095Z,96924.59
2023-01-20T07:01:39.694Z,96929.63
2023-01-20T07:04:12.861Z,96938.06
2023-01-20T07:06:41.472Z,96936.97
2023-01-20T07:09:10.577Z,96944.53
2023-01-20T07:11:39.665Z,96948.22
2023-01-20T07:14:06.877Z,96943.22
2023-01-20T07:16:37.069Z,96939.22
2023-01-20T07:19:04.363Z,96943.94
2023-01-20T07:21:30.886Z,96948.88
2023-01-20T07:24:03.156Z,96951.41
2023-01-20T07:26:32.196Z,96955.63
2023-01-20T07:28:59.523Z,96962.72
2023-01-20T07:31:31.324Z,96954.84
2023-01-20T07:33:58.209Z,96959.44
2023-01-20T07:36:25.026Z,96962.63
2023-01-20T07:38:52.910Z,96962.22
2023-01-20T07:41:20.363Z,96968.28
2023-01-20T07:43:51.777Z,96964.34
2023-01-20T07:46:19.145Z,96971.69
2023-01-20T07:48:46.051Z,96969.69
2023-01-20T07:51:15.420Z,96973.31
2023-01-20T07:53:47.095Z,96990.25
2023-01-20T07:56:25.098Z,96987.00
2023-01-20T07:58:53.670Z,96991.47
2023-01-20T08:01:29.748Z,96993.81
2023-01-20T08:03:57.464Z,96998.59
2023-01-20T08:06:28.481Z,96995.47
2023-01-20T08:08:57.807Z,97006.50
2023-01-20T08:11:27.559Z,97001.34
2023-01-20T08:13:54.068Z,97002.91
2023-01-20T08:16:20.804Z,97011.75
2023-01-20T08:18:47.833Z,97017.22
2023-01-20T08:21:20.289Z,97022.06
2023-01-20T08:23:46.787Z,97026.63
2023-01-20T08:26:13.829Z,97028.00
2023-01-20T08:28:40.467Z,97025.81
2023-01-20T08:31:09.477Z,97024.63
2023-01-20T08:33:36.578Z,97032.81
2023-01-20T08:36:32.680Z,97033.47
2023-01-20T08:39:02.486Z,97037.41
2023-01-20T08:41:35.494Z,97035.84
2023-01-20T08:44:04.766Z,97043.19
2023-01-20T08:46:32.190Z,97044.19
2023-01-20T08:48:58.953Z,97045.84
2023-01-20T08:51:28.960Z,97049.28
2023-01-20T08:56:40.719Z,97053.63
2023-01-20T08:59:07.403Z,97061.28
2023-01-20T09:01:38.375Z,97065.81
2023-01-20T09:04:07.181Z,97067.94
2023-01-20T09:06:42.801Z,97069.28
2023-01-20T09:09:12.727Z,97073.81
2023-01-20T09:11:40.326Z,97076.22
2023-01-20T09:14:06.950Z,97076.81
2023-01-20T09:16:33.457Z,97076.09
2023-01-20T09:18:59.985Z,97076.59
2023-01-20T09:21:26.526Z,97083.38
2023-01-20T09:23:53.095Z,97085.03
2023-01-20T09:26:34.423Z,97087.09
2023-01-20T09:29:09.218Z,97085.94
2023-01-20T09:31:44.461Z,97085.13
2023-01-20T09:34:19.434Z,97085.56
2023-01-20T09:36:49.335Z,97096.75
2023-01-20T09:39:35.115Z,97089.69
2023-01-20T09:42:34.533Z,97101.91
2023-01-20T09:45:25.143Z,97098.16
2023-01-20T09:48:01.046Z,97094.97
2023-01-20T09:51:08.225Z,97105.81
2023-01-20T09:54:00.834Z,97102.75
2023-01-20T09:56:29.047Z,97109.78
2023-01-20T09:59:08.068Z,97110.47
2023-01-20T10:01:48.334Z,97102.56
2023-01-20T10:04:29.792Z,97102.22
2023-01-20T10:07:07.561Z,97103.91
2023-01-20T10:09:38.273Z,97111.28
2023-01-20T10:12:18.493Z,97109.44
2023-01-20T10:14:49.082Z,97108.84
2023-01-20T10:17:26.210Z,97111.50
2023-01-20T10:20:07.893Z,97125.44
2023-01-20T10:22:45.096Z,97119.53
2023-01-20T10:25:58.163Z,97117.88
2023-01-20T10:28:29.751Z,97115.47
2023-01-20T10:30:58.563Z,97112.63
2023-01-20T10:33:33.703Z,97109.50
2023-01-20T10:36:00.836Z,97107.00
2023-01-20T10:38:52.596Z,97107.75
2023-01-20T10:41:26.975Z,97110.34
2023-01-20T10:43:53.956Z,97118.06
2023-01-20T10:46:29.171Z,97109.75
2023-01-20T10:49:33.297Z,97116.97
2023-01-20T10:52:02.758Z,97119.53
2023-01-20T10:54:45.204Z,97111.38
2023-01-20T10:57:14.336Z,97113.78
2023-01-20T10:59:52.326Z,97106.78
2023-01-20T11:02:27.761Z,97111.16
2023-01-20T11:05:29.499Z,97118.81
2023-01-20T11:07:58.354Z,97113.41
2023-01-20T11:10:27.848Z,97118.16
2023-01-20T11:12:59.599Z,97114.03
2023-01-20T11:15:44.929Z,97113.41
2023-01-20T11:18:14.323Z,97106.63
2023-01-20T11:20:56.357Z,97115.19
2023-01-20T11:23:39.200Z,97116.09
2023-01-20T11:26:20.436Z,97111.22
2023-01-20T11:28:54.407Z,97108.88
2023-01-20T11:31:32.987Z,97107.75
2023-01-20T11:34:02.327Z,97105.91
2023-01-20T11:36:29.460Z,97104.72
2023-01-20T11:38:57.163Z,97110.75
2023-01-20T11:41:25.625Z,97100.97
2023-01-20T11:44:00.320Z,97107.09
2023-01-20T11:46:36.047Z,97100.00
2023-01-20T11:49:13.846Z,97100.69
2023-01-20T11:51:50.833Z,97103.31
2023-01-20T11:54:26.413Z,97112.78
2023-01-20T11:57:17.252Z,97111.47
2023-01-20T11:59:49.482Z,97112.50
2023-01-20T12:02:24.722Z,97119.88
2023-01-20T12:05:17.012Z,97111.97
2023-01-20T12:07:48.890Z,97108.69
2023-01-20T12:10:32.226Z,97116.84
2023-01-20T12:13:18.332Z,97110.59
2023-01-20T12:15:53.843Z,97115.97
2023-01-20T12:19:01.325Z,97114.72
2023-01-20T12:21:37.204Z,97117.19
2023-01-20T12:24:20.923Z,97114.06
2023-01-20T12:26:48.297Z,97117.78
2023-01-20T12:29:27.320Z,97118.97
2023-01-20T12:31:54.518Z,97120.91
2023-01-20T12:34:27.931Z,97123.22
2023-01-20T12:37:23.388Z,97125.47
2023-01-20T12:39:52.800Z,97126.28
2023-01-20T12:42:41.291Z,97123.09
2023-01-20T12:45:38.802Z,97117.50
2023-01-20T12:48:31.038Z,97127.66
2023-01-20T12:51:35.759Z,97124.63
2023-01-20T12:54:21.162Z,97128.81
2023-01-20T12:57:12.089Z,97135.09
2023-01-20T13:00:14.990Z,97133.63
2023-01-20T13:03:18.360Z,97131.66
2023-01-20T13:05:44.879Z,97136.03
2023-01-20T13:08:43.730Z,97136.50
2023-01-20T13:11:28.387Z,97139.44
2023-01-20T13:14:21.210Z,97141.66
2023-01-20T13:17:07.936Z,97140.41
2023-01-20T13:19:39.004Z,97142.69
2023-01-20T13:22:31.901Z,97149.34
2023-01-20T13:25:04.713Z,97148.72
2023-01-20T13:27:37.461Z,97151.28
2023-01-20T13:30:06.808Z,97151.56
2023-01-20T13:32:36.536Z,97157.13
2023-01-20T13:35:18.370Z,97155.53
2023-01-20T13:37:54.227Z,97161.72
2023-01-20T13:40:33.231Z,97164.84
2023-01-20T13:43:00.279Z,97171.41
2023-01-20T13:45:27.854Z,97171.78
2023-01-20T13:48:05.865Z,97167.16
2023-01-20T13:50:32.393Z,97173.84
2023-01-20T13:53:15.070Z,97171.47
2023-01-20T13:55:41.606Z,97178.53
2023-01-20T13:58:15.615Z,97185.56
2023-01-20T14:00:42.731Z,97187.03
2023-01-20T14:03:30.032Z,97184.47
2023-01-20T14:06:21.224Z,97183.00
2023-01-20T14:08:49.735Z,97182.88
2023-01-20T14:11:24.294Z,97184.91
2023-01-20T14:13:55.090Z,97188.41
2023-01-20T14:16:26.132Z,97189.50
2023-01-20T14:18:58.645Z,97191.09
2023-01-20T14:21:30.146Z,97189.88
2023-01-20T14:23:57.176Z,97196.31
2023-01-20T14:26:26.717Z,97195.03
2023-01-20T14:28:55.555Z,97191.44
2023-01-20T14:31:45.985Z,97195.75
2023-01-20T14:34:30.389Z,97197.53
2023-01-20T14:37:03.651Z,97202.69
2023-01-20T14:39:30.937Z,97200.88
2023-01-20T14:42:01.457Z,97196.28
2023-01-20T14:44:30.658Z,97206.03
2023-01-20T14:47:02.233Z,97201.28
2023-01-20T14:49:33.467Z,97204.03
2023-01-20T14:52:00.955Z,97212.44
2023-01-20T14:54:34.268Z,97211.56
2023-01-20T14:57:17.997Z,97215.34
2023-01-20T14:59:44.485Z,97217.06
2023-01-20T15:02:28.269Z,97218.56
2023-01-20T15:04:55.775Z,97224.53
2023-01-20T15:07:24.035Z,97225.50
2023-01-20T15:09:58.151Z,97219.53
2023-01-20T15:12:42.568Z,97223.47
2023-01-20T15:15:12.133Z,97226.97
2023-01-20T15:18:04.864Z,97234.53
2023-01-20T15:20:33.497Z,97234.09
2023-01-20T15:23:00.691Z,97233.41
2023-01-20T15:25:28.609Z,97234.25
2023-01-20T15:27:57.117Z,97234.66
2023-01-20T15:30:27.582Z,97239.66
2023-01-20T15:32:55.546Z,97236.31
2023-01-20T15:35:26.022Z,97240.88
2023-01-20T15:37:53.913Z,97247.66
2023-01-20T15:40:24.934Z,97238.25
2023-01-20T15:42:53.376Z,97239.66
2023-01-20T15:45:22.333Z,97241.13
2023-01-20T15:47:51.168Z,97251.84
2023-01-20T15:50:22.154Z,97252.50
2023-01-20T15:52:49.364Z,97244.34
2023-01-20T15:55:17.618Z,97250.09
2023-01-20T15:57:47.035Z,97253.72
2023-01-20T16:00:22.686Z,97252.63
2023-01-20T16:02:51.694Z,97261.75
2023-01-20T16:05:18.293Z,97262.72
2023-01-20T16:07:47.697Z,97261.22
2023-01-20T16:10:19.595Z,97259.19
2023-01-20T16:12:47.071Z,97258.28
2023-01-20T16:15:19.221Z,97265.16
2023-01-20T16:17:45.874Z,97269.34
2023-01-20T16:20:19.098Z,97273.41
2023-01-20T16:22:45.723Z,97270.53
2023-01-20T16:25:12.397Z,97268.50
2023-01-20T16:27:38.990Z,97264.91
2023-01-20T16:30:06.204Z,97263.50
2023-01-20T16:32:32.806Z,97264.69
2023-01-20T16:34:59.382Z,97267.91
2023-01-20T16:37:25.977Z,97271.25
2023-01-20T16:39:52.603Z,97269.88
2023-01-20T16:42:19.150Z,97269.06
2023-01-20T16:44:45.699Z,97280.34
2023-01-20T16:47:12.269Z,97281.56
2023-01-20T16:49:38.972Z,97287.03
2023-01-20T16:52:05.555Z,97283.75
2023-01-20T16:54:32.083Z,97287.94
2023-01-20T16:56:58.765Z,97286.31
2023-01-20T16:59:26.007Z,97293.41
2023-01-20T17:01:52.650Z,97291.19
2023-01-20T17:04:19.269Z,97294.28
2023-01-20T17:06:45.857Z,97302.34
2023-01-20T17:09:12.475Z,97302.78
2023-01-20T17:11:40.454Z,97302.78
2023-01-20T17:14:09.656Z,97302.19
2023-01-20T17:16:37.204Z,97307.22
2023-01-20T17:19:05.179Z,97304.56
2023-01-20T17:21:34.530Z,97307.41
2023-01-20T17:24:04.091Z,97304.75
2023-01-20T17:26:33.722Z,97306.50
2023-01-20T17:29:02.964Z,97311.63
2023-01-20T17:31:31.877Z,97310.41
2023-01-20T17:34:00.815Z,97310.69
2023-01-20T17:36:29.528Z,97306.88
2023-01-20T17:38:57.539Z,97312.94
2023-01-20T17:41:24.084Z,97315.50
2023-01-20T17:43:51.004Z,97320.91
2023-01-20T17:46:28.721Z,97312.06
2023-01-20T17:49:02.110Z,97323.13
2023-01-20T17:51:31.504Z,97334.25
2023-01-20T17:54:00.242Z,97322.47
2023-01-20T17:56:31.075Z,97324.91
2023-01-20T17:59:00.233Z,97330.78
2023-01-20T18:01:29.014Z,97326.81
2023-01-20T18:03:58.756Z,97318.91
2023-01-20T18:06:26.831Z,97323.31
2023-01-20T18:08:58.323Z,97322.56
2023-01-20T18:11:29.227Z,97329.97
2023-01-20T18:13:57.588Z,97332.09
2023-01-20T18:16:28.077Z,97330.06
2023-01-20T18:18:58.719Z,97334.97
2023-01-20T18:21:28.905Z,97330.91
2023-01-20T18:23:55.951Z,97331.13
2023-01-20T18:26:25.091Z,97329.06
2023-01-20T18:28:56.046Z,97337.59
2023-01-20T18:31:24.667Z,97338.44
2023-01-20T18:33:54.726Z,97335.34
2023-01-20T18:36:27.129Z,97336.38
2023-01-20T18:38:56.645Z,97335.75
2023-01-20T18:41:24.973Z,97340.41
2023-01-20T18:43:51.929Z,97337.53
2023-01-20T18:46:18.835Z,97338.31
2023-01-20T18:48:47.344Z,97332.59
2023-01-20T18:51:16.105Z,97334.16
2023-01-20T18:53:44.487Z,97340.38
2023-01-20T18:56:13.810Z,97340.53
2023-01-20T18:58:45.730Z,97336.59
2023-01-20T19:01:14.864Z,97336.44
2023-01-20T19:03:41.597Z,97336.28
2023-01-20T19:06:13.000Z,97341.13
2023-01-20T19:08:41.189Z,97343.25
2023-01-20T19:11:15.215Z,97338.09
2023-01-20T19:13:43.645Z,97347.16
2023-01-20T19:16:12.761Z,97340.13
2023-01-20T19:18:44.740Z,97346.16
2023-01-20T19:21:14.849Z,97355.31
2023-01-20T19:23:42.198Z,97343.78
2023-01-20T19:26:11.275Z,97353.00
2023-01-20T19:28:38.813Z,97346.38
2023-01-20T19:31:11.222Z,97353.53
2023-01-20T19:33:40.597Z,97350.31
2023-01-20T19:36:11.257Z,97349.25
2023-01-20T19:38:38.579Z,97351.84
2023-01-20T19:41:10.947Z,97355.44
2023-01-20T19:43:38.419Z,97357.22
2023-01-20T19:46:16.025Z,97360.34
2023-01-20T19:48:43.107Z,97354.91
2023-01-20T19:51:15.049Z,97353.75
2023-01-20T19:53:43.236Z,97360.34
2023-01-20T19:56:16.376Z,97355.44
2023-01-20T19:58:43.980Z,97359.50
2023-01-20T20:01:13.247Z,97359.41
2023-01-20T20:03:40.545Z,97359.28
2023-01-20T20:06:21.211Z,97358.44
2023-01-20T20:08:47.980Z,97363.03
2023-01-20T20:11:15.187Z,97360.34
2023-01-20T20:13:42.067Z,97365.47
2023-01-20T20:16:09.099Z,97367.16
2023-01-20T20:18:36.103Z,97362.84
2023-01-20T20:21:05.026Z,97370.63
2023-01-20T20:23:31.826Z,97366.59
2023-01-20T20:26:00.599Z,97370.97
2023-01-20T20:28:28.378Z,97372.41
2023-01-20T20:31:05.092Z,97377.28
2023-01-20T20:33:32.121Z,97375.50
2023-01-20T20:35:58.763Z,97379.25
2023-01-20T20:38:25.924Z,97368.59
2023-01-20T20:40:58.814Z,97382.06
2023-01-20T20:43:26.313Z,97375.09
2023-01-20T20:45:53.249Z,97375.16
2023-01-20T20:48:20.101Z,97371.47
2023-01-20T20:50:46.844Z,97376.63
2023-01-20T20:53:13.552Z,97376.28
2023-01-20T20:55:41.657Z,97382.28
2023-01-20T20:58:09.563Z,97384.56
2023-01-20T21:00:37.188Z,97385.81
2023-01-20T21:03:11.122Z,97385.44
2023-01-20T21:05:37.893Z,97388.53
2023-01-20T21:08:06.053Z,97384.38
2023-01-20T21:10:34.845Z,97386.94
2023-01-20T21:13:01.448Z,97390.31
2023-01-20T21:15:30.573Z,97386.16
2023-01-20T21:17:58.397Z,97386.13
2023-01-20T21:20:25.283Z,97380.69
2023-01-20T21:22:52.144Z,97383.78
2023-01-20T21:25:18.687Z,97392.75
2023-01-20T21:27:47.691Z,97388.91
2023-01-20T21:30:14.757Z,97390.19
2023-01-20T21:32:41.579Z,97397.44
2023-01-20T21:35:10.887Z,97398.03
2023-01-20T21:37:39.846Z,97395.84
2023-01-20T21:40:07.037Z,97398.84
2023-01-20T21:42:33.709Z,97396.56
2023-01-20T21:45:00.326Z,97401.47
2023-01-20T21:47:26.988Z,97403.25
2023-01-20T21:50:14.980Z,97408.25
2023-01-20T21:52:41.770Z,97411.34
2023-01-20T21:55:16.354Z,97404.34
2023-01-20T21:57:43.249Z,97402.72
2023-01-20T22:00:11.060Z,97420.00
2023-01-20T22:02:37.759Z,97413.25
2023-01-20T22:05:04.639Z,97413.91
2023-01-20T22:07:31.241Z,97412.31
2023-01-20T22:09:58.369Z,97411.44
2023-01-20T22:12:25.159Z,97415.75
2023-01-20T22:14:51.792Z,97415.75
2023-01-20T22:17:18.370Z,97416.19
2023-01-20T22:19:45.597Z,97413.78
2023-01-20T22:22:19.788Z,97410.81
2023-01-20T22:24:48.531Z,97410.66
2023-01-20T22:27:15.135Z,97423.00
2023-01-20T22:29:41.755Z,97421.59
2023-01-20T22:32:08.336Z,97423.50
2023-01-20T22:34:35.180Z,97427.25
2023-01-20T22:37:02.310Z,97414.56
2023-01-20T22:39:28.952Z,97423.06
2023-01-20T22:41:57.991Z,97426.50
2023-01-20T22:44:24.666Z,97421.81
2023-01-20T22:46:51.273Z,97418.25
2023-01-20T22:49:18.395Z,97428.97
2023-01-20T22:51:45.074Z,97427.13
2023-01-20T22:54:11.845Z,97429.91
2023-01-20T22:56:40.902Z,97427.13
2023-01-20T22:59:07.719Z,97427.31
2023-01-20T23:01:35.416Z,97432.09
2023-01-20T23:04:04.829Z,97428.31
2023-01-20T23:06:34.084Z,97429.88
2023-01-20T23:09:02.558Z,97427.78
2023-01-20T23:11:32.516Z,97433.34
2023-01-20T23:14:00.407Z,97433.22
2023-01-20T23:16:27.206Z,97429.22
2023-01-20T23:18:53.928Z,97431.63
2023-01-20T23:21:21.452Z,97434.09
2023-01-20T23:23:54.408Z,97435.22
2023-01-20T23:26:26.655Z,97435.00
2023-01-20T23:28:55.204Z,97433.34
2023-01-20T23:31:25.428Z,97430.09
2023-01-20T23:33:54.346Z,97429.66
2023-01-20T23:36:28.324Z,97438.06
2023-01-20T23:38:55.984Z,97436.53
2023-01-20T23:41:27.610Z,97441.69
2023-01-20T23:43:54.313Z,97442.06
2023-01-20T23:46:20.920Z,97439.38
2023-01-20T23:48:47.835Z,97437.75
2023-01-20T23:51:14.867Z,97441.97
2023-01-20T23:53:41.793Z,97443.72
2023-01-20T23:56:20.753Z,97449.78
2023-01-20T23:58:47.842Z,97443.09
